sensor_id;sensor_type;location;lat;lon;timestamp;temperature;humidity
13798;DHT22;6970;51.340;3.240;2022-07-09T00:01:06;19.40;99.90
13798;DHT22;6970;51.340;3.240;2022-07-09T00:03:33;19.40;99.90
13798;DHT22;6970;51.340;3.240;2022-07-09T00:06:00;19.40;99.90
13798;DHT22;6970;51.340;3.240;2022-07-09T00:08:29;19.40;99.90
13798;DHT22;6970;51.340;3.240;2022-07-09T00:10:57;19.40;99.90
13798;DHT22;6970;51.340;3.240;2022-07-09T00:13:24;19.30;99.90
13798;DHT22;6970;51.340;3.240;2022-07-09T00:15:51;19.30;99.90
13798;DHT22;6970;51.340;3.240;2022-07-09T00:18:20;19.30;99.90
13798;DHT22;6970;51.340;3.240;2022-07-09T00:20:47;19.30;99.90
13798;DHT22;6970;51.340;3.240;2022-07-09T00:23:13;19.40;99.90
13798;DHT22;6970;51.340;3.240;2022-07-09T00:25:41;19.40;99.90
13798;DHT22;6970;51.340;3.240;2022-07-09T00:28:07;19.40;99.90
13798;DHT22;6970;51.340;3.240;2022-07-09T00:30:34;19.40;99.90
13798;DHT22;6970;51.340;3.240;2022-07-09T00:33:01;19.40;99.90
13798;DHT22;6970;51.340;3.240;2022-07-09T00:35:29;19.50;99.90
13798;DHT22;6970;51.340;3.240;2022-07-09T00:37:56;19.50;99.90
13798;DHT22;6970;51.340;3.240;2022-07-09T00:40:23;19.50;99.90
13798;DHT22;6970;51.340;3.240;2022-07-09T00:42:50;19.60;99.90
13798;DHT22;6970;51.340;3.240;2022-07-09T00:45:17;19.60;99.90
13798;DHT22;6970;51.340;3.240;2022-07-09T00:47:44;19.60;99.90
13798;DHT22;6970;51.340;3.240;2022-07-09T00:50:11;19.60;99.90
13798;DHT22;6970;51.340;3.240;2022-07-09T00:52:39;19.60;99.90
13798;DHT22;6970;51.340;3.240;2022-07-09T00:55:07;19.60;99.90
13798;DHT22;6970;51.340;3.240;2022-07-09T00:57:36;19.60;99.90
13798;DHT22;6970;51.340;3.240;2022-07-09T01:00:05;19.50;99.90
13798;DHT22;6970;51.340;3.240;2022-07-09T01:02:32;19.50;99.90
13798;DHT22;6970;51.340;3.240;2022-07-09T01:05:00;19.50;99.90
13798;DHT22;6970;51.340;3.240;2022-07-09T01:07:27;19.50;99.90
13798;DHT22;6970;51.340;3.240;2022-07-09T01:09:54;19.50;99.90
13798;DHT22;6970;51.340;3.240;2022-07-09T01:12:21;19.50;99.90
13798;DHT22;6970;51.340;3.240;2022-07-09T01:14:48;19.50;99.90
13798;DHT22;6970;51.340;3.240;2022-07-09T01:17:15;19.50;99.90
13798;DHT22;6970;51.340;3.240;2022-07-09T01:19:43;19.40;99.90
13798;DHT22;6970;51.340;3.240;2022-07-09T01:22:10;19.40;99.90
13798;DHT22;6970;51.340;3.240;2022-07-09T01:24:37;19.40;99.90
13798;DHT22;6970;51.340;3.240;2022-07-09T01:27:04;19.40;99.90
13798;DHT22;6970;51.340;3.240;2022-07-09T01:29:32;19.40;99.90
13798;DHT22;6970;51.340;3.240;2022-07-09T01:31:59;19.40;99.90
13798;DHT22;6970;51.340;3.240;2022-07-09T01:34:26;19.30;99.90
13798;DHT22;6970;51.340;3.240;2022-07-09T01:36:53;19.30;99.90
13798;DHT22;6970;51.340;3.240;2022-07-09T01:39:20;19.20;99.90
13798;DHT22;6970;51.340;3.240;2022-07-09T01:41:47;19.20;99.90
13798;DHT22;6970;51.340;3.240;2022-07-09T01:44:14;19.10;99.90
13798;DHT22;6970;51.340;3.240;2022-07-09T01:46:40;19.10;99.90
13798;DHT22;6970;51.340;3.240;2022-07-09T01:49:08;19.10;99.90
13798;DHT22;6970;51.340;3.240;2022-07-09T01:51:35;19.10;99.90
13798;DHT22;6970;51.340;3.240;2022-07-09T01:54:02;19.10;99.90
13798;DHT22;6970;51.340;3.240;2022-07-09T01:56:31;19.10;99.90
13798;DHT22;6970;51.340;3.240;2022-07-09T01:58:58;19.10;99.90
13798;DHT22;6970;51.340;3.240;2022-07-09T02:01:25;19.10;99.90
13798;DHT22;6970;51.340;3.240;2022-07-09T02:03:52;19.00;99.90
13798;DHT22;6970;51.340;3.240;2022-07-09T02:06:19;19.00;99.90
13798;DHT22;6970;51.340;3.240;2022-07-09T02:08:46;19.00;99.90
13798;DHT22;6970;51.340;3.240;2022-07-09T02:11:13;18.90;99.90
13798;DHT22;6970;51.340;3.240;2022-07-09T02:13:40;18.90;99.90
13798;DHT22;6970;51.340;3.240;2022-07-09T02:16:07;18.90;99.90
13798;DHT22;6970;51.340;3.240;2022-07-09T02:18:35;18.80;99.90
13798;DHT22;6970;51.340;3.240;2022-07-09T02:21:03;18.80;99.90
13798;DHT22;6970;51.340;3.240;2022-07-09T02:23:31;18.80;99.90
13798;DHT22;6970;51.340;3.240;2022-07-09T02:25:58;18.80;99.90
13798;DHT22;6970;51.340;3.240;2022-07-09T02:28:25;18.70;99.90
13798;DHT22;6970;51.340;3.240;2022-07-09T02:30:52;18.70;99.90
13798;DHT22;6970;51.340;3.240;2022-07-09T02:33:21;18.70;99.90
13798;DHT22;6970;51.340;3.240;2022-07-09T02:35:48;18.70;99.90
13798;DHT22;6970;51.340;3.240;2022-07-09T02:38:15;18.60;99.90
13798;DHT22;6970;51.340;3.240;2022-07-09T02:40:42;18.60;99.90
13798;DHT22;6970;51.340;3.240;2022-07-09T02:43:09;18.60;99.90
13798;DHT22;6970;51.340;3.240;2022-07-09T02:45:36;18.60;99.90
13798;DHT22;6970;51.340;3.240;2022-07-09T02:48:03;18.60;99.90
13798;DHT22;6970;51.340;3.240;2022-07-09T02:50:30;18.60;99.90
13798;DHT22;6970;51.340;3.240;2022-07-09T02:52:57;18.50;99.90
13798;DHT22;6970;51.340;3.240;2022-07-09T02:55:24;18.50;99.90
13798;DHT22;6970;51.340;3.240;2022-07-09T02:57:51;18.40;99.90
13798;DHT22;6970;51.340;3.240;2022-07-09T03:00:18;18.40;99.90
13798;DHT22;6970;51.340;3.240;2022-07-09T03:02:45;18.40;99.90
13798;DHT22;6970;51.340;3.240;2022-07-09T03:05:12;18.40;99.90
13798;DHT22;6970;51.340;3.240;2022-07-09T03:07:39;18.40;99.90
13798;DHT22;6970;51.340;3.240;2022-07-09T03:10:06;18.30;99.90
13798;DHT22;6970;51.340;3.240;2022-07-09T03:12:33;18.30;99.90
13798;DHT22;6970;51.340;3.240;2022-07-09T03:15:00;18.30;99.90
13798;DHT22;6970;51.340;3.240;2022-07-09T03:17:27;18.30;99.90
13798;DHT22;6970;51.340;3.240;2022-07-09T03:19:54;18.30;99.90
13798;DHT22;6970;51.340;3.240;2022-07-09T03:22:21;18.30;99.90
13798;DHT22;6970;51.340;3.240;2022-07-09T03:24:48;18.30;99.90
13798;DHT22;6970;51.340;3.240;2022-07-09T03:27:15;18.20;99.90
13798;DHT22;6970;51.340;3.240;2022-07-09T03:29:42;18.20;99.90
13798;DHT22;6970;51.340;3.240;2022-07-09T03:32:09;18.20;99.90
13798;DHT22;6970;51.340;3.240;2022-07-09T03:34:36;18.10;99.90
13798;DHT22;6970;51.340;3.240;2022-07-09T03:37:03;18.00;99.90
13798;DHT22;6970;51.340;3.240;2022-07-09T03:39:30;18.00;99.90
13798;DHT22;6970;51.340;3.240;2022-07-09T03:41:57;18.00;99.90
13798;DHT22;6970;51.340;3.240;2022-07-09T03:44:24;17.90;99.90
13798;DHT22;6970;51.340;3.240;2022-07-09T03:46:51;17.90;99.90
13798;DHT22;6970;51.340;3.240;2022-07-09T03:49:18;17.90;99.90
13798;DHT22;6970;51.340;3.240;2022-07-09T03:51:46;17.90;99.90
13798;DHT22;6970;51.340;3.240;2022-07-09T03:54:33;18.00;99.90
13798;DHT22;6970;51.340;3.240;2022-07-09T03:57:02;17.90;99.90
13798;DHT22;6970;51.340;3.240;2022-07-09T03:59:29;18.00;99.90
13798;DHT22;6970;51.340;3.240;2022-07-09T04:01:56;17.90;99.90
13798;DHT22;6970;51.340;3.240;2022-07-09T04:04:23;17.90;99.90
13798;DHT22;6970;51.340;3.240;2022-07-09T04:06:50;17.90;99.90
13798;DHT22;6970;51.340;3.240;2022-07-09T04:09:17;17.90;99.90
13798;DHT22;6970;51.340;3.240;2022-07-09T04:11:44;17.90;99.90
13798;DHT22;6970;51.340;3.240;2022-07-09T04:14:12;18.00;99.90
13798;DHT22;6970;51.340;3.240;2022-07-09T04:16:41;18.00;99.90
13798;DHT22;6970;51.340;3.240;2022-07-09T04:19:08;18.00;99.90
13798;DHT22;6970;51.340;3.240;2022-07-09T04:21:35;18.00;99.90
13798;DHT22;6970;51.340;3.240;2022-07-09T04:24:02;18.00;99.90
13798;DHT22;6970;51.340;3.240;2022-07-09T04:26:29;18.00;99.90
13798;DHT22;6970;51.340;3.240;2022-07-09T04:28:56;18.10;99.90
13798;DHT22;6970;51.340;3.240;2022-07-09T04:31:23;18.10;99.90
13798;DHT22;6970;51.340;3.240;2022-07-09T04:33:50;18.10;99.90
13798;DHT22;6970;51.340;3.240;2022-07-09T04:36:17;18.10;99.90
13798;DHT22;6970;51.340;3.240;2022-07-09T04:38:44;18.20;99.90
13798;DHT22;6970;51.340;3.240;2022-07-09T04:41:11;18.20;99.90
13798;DHT22;6970;51.340;3.240;2022-07-09T04:43:38;18.30;99.90
13798;DHT22;6970;51.340;3.240;2022-07-09T04:46:05;18.20;99.90
13798;DHT22;6970;51.340;3.240;2022-07-09T04:48:34;18.30;99.90
13798;DHT22;6970;51.340;3.240;2022-07-09T04:51:01;18.30;99.90
13798;DHT22;6970;51.340;3.240;2022-07-09T04:53:28;18.30;99.90
13798;DHT22;6970;51.340;3.240;2022-07-09T04:55:55;18.40;99.90
13798;DHT22;6970;51.340;3.240;2022-07-09T04:58:23;18.40;99.90
13798;DHT22;6970;51.340;3.240;2022-07-09T05:00:50;18.40;99.90
13798;DHT22;6970;51.340;3.240;2022-07-09T05:03:17;18.40;99.90
13798;DHT22;6970;51.340;3.240;2022-07-09T05:05:44;18.40;99.90
13798;DHT22;6970;51.340;3.240;2022-07-09T05:08:17;18.50;99.90
13798;DHT22;6970;51.340;3.240;2022-07-09T05:10:44;18.50;99.90
13798;DHT22;6970;51.340;3.240;2022-07-09T05:13:11;18.50;99.90
13798;DHT22;6970;51.340;3.240;2022-07-09T05:15:39;18.50;99.90
13798;DHT22;6970;51.340;3.240;2022-07-09T05:18:07;18.50;99.90
13798;DHT22;6970;51.340;3.240;2022-07-09T05:20:34;18.60;99.90
13798;DHT22;6970;51.340;3.240;2022-07-09T05:23:01;18.60;99.90
13798;DHT22;6970;51.340;3.240;2022-07-09T05:25:28;18.60;99.90
13798;DHT22;6970;51.340;3.240;2022-07-09T05:27:54;18.70;99.90
13798;DHT22;6970;51.340;3.240;2022-07-09T05:30:21;18.80;99.90
13798;DHT22;6970;51.340;3.240;2022-07-09T05:32:48;18.80;99.90
13798;DHT22;6970;51.340;3.240;2022-07-09T05:35:16;18.80;99.90
13798;DHT22;6970;51.340;3.240;2022-07-09T05:37:44;18.90;99.90
13798;DHT22;6970;51.340;3.240;2022-07-09T05:40:11;19.00;99.90
13798;DHT22;6970;51.340;3.240;2022-07-09T05:42:39;19.00;99.90
13798;DHT22;6970;51.340;3.240;2022-07-09T05:45:06;19.10;99.90
13798;DHT22;6970;51.340;3.240;2022-07-09T05:47:36;19.20;99.90
13798;DHT22;6970;51.340;3.240;2022-07-09T05:50:06;19.30;99.90
13798;DHT22;6970;51.340;3.240;2022-07-09T05:52:37;19.50;99.90
13798;DHT22;6970;51.340;3.240;2022-07-09T05:55:04;19.60;99.90
13798;DHT22;6970;51.340;3.240;2022-07-09T05:57:34;19.80;99.90
13798;DHT22;6970;51.340;3.240;2022-07-09T06:00:02;19.90;99.90
13798;DHT22;6970;51.340;3.240;2022-07-09T06:02:32;20.00;99.90
13798;DHT22;6970;51.340;3.240;2022-07-09T06:05:01;20.10;99.90
13798;DHT22;6970;51.340;3.240;2022-07-09T06:07:31;20.20;99.90
13798;DHT22;6970;51.340;3.240;2022-07-09T06:10:01;20.30;99.90
13798;DHT22;6970;51.340;3.240;2022-07-09T06:12:31;20.40;99.90
13798;DHT22;6970;51.340;3.240;2022-07-09T06:14:58;20.50;99.90
13798;DHT22;6970;51.340;3.240;2022-07-09T06:17:25;20.60;99.90
13798;DHT22;6970;51.340;3.240;2022-07-09T06:19:55;20.70;99.90
13798;DHT22;6970;51.340;3.240;2022-07-09T06:22:25;20.70;99.90
13798;DHT22;6970;51.340;3.240;2022-07-09T06:24:53;20.70;99.90
13798;DHT22;6970;51.340;3.240;2022-07-09T06:27:24;20.60;99.90
13798;DHT22;6970;51.340;3.240;2022-07-09T06:29:54;20.60;99.90
13798;DHT22;6970;51.340;3.240;2022-07-09T06:32:21;20.60;99.90
13798;DHT22;6970;51.340;3.240;2022-07-09T06:34:50;20.60;99.90
13798;DHT22;6970;51.340;3.240;2022-07-09T06:37:17;20.60;99.90
13798;DHT22;6970;51.340;3.240;2022-07-09T06:39:46;20.50;99.90
13798;DHT22;6970;51.340;3.240;2022-07-09T06:42:15;20.50;99.90
13798;DHT22;6970;51.340;3.240;2022-07-09T06:44:43;20.50;99.90
13798;DHT22;6970;51.340;3.240;2022-07-09T06:47:12;20.40;99.90
13798;DHT22;6970;51.340;3.240;2022-07-09T06:49:39;20.30;99.90
13798;DHT22;6970;51.340;3.240;2022-07-09T06:52:07;20.30;99.90
13798;DHT22;6970;51.340;3.240;2022-07-09T06:54:35;20.30;99.90
13798;DHT22;6970;51.340;3.240;2022-07-09T06:57:03;20.30;99.90
13798;DHT22;6970;51.340;3.240;2022-07-09T06:59:32;20.20;99.90
13798;DHT22;6970;51.340;3.240;2022-07-09T07:01:59;20.20;99.90
13798;DHT22;6970;51.340;3.240;2022-07-09T07:04:26;20.20;99.90
13798;DHT22;6970;51.340;3.240;2022-07-09T07:06:53;20.20;99.90
13798;DHT22;6970;51.340;3.240;2022-07-09T07:09:20;20.20;99.90
13798;DHT22;6970;51.340;3.240;2022-07-09T07:11:52;20.20;99.90
13798;DHT22;6970;51.340;3.240;2022-07-09T07:14:19;20.30;99.90
13798;DHT22;6970;51.340;3.240;2022-07-09T07:16:46;20.30;99.90
13798;DHT22;6970;51.340;3.240;2022-07-09T07:19:13;20.40;99.90
13798;DHT22;6970;51.340;3.240;2022-07-09T07:21:41;20.50;99.90
13798;DHT22;6970;51.340;3.240;2022-07-09T07:24:08;20.60;99.90
13798;DHT22;6970;51.340;3.240;2022-07-09T07:26:35;20.70;99.90
13798;DHT22;6970;51.340;3.240;2022-07-09T07:29:03;20.70;99.90
13798;DHT22;6970;51.340;3.240;2022-07-09T07:31:37;20.80;99.90
13798;DHT22;6970;51.340;3.240;2022-07-09T07:34:05;20.80;99.90
13798;DHT22;6970;51.340;3.240;2022-07-09T07:36:32;20.90;99.90
13798;DHT22;6970;51.340;3.240;2022-07-09T07:39:01;20.90;99.90
13798;DHT22;6970;51.340;3.240;2022-07-09T07:41:29;21.00;99.90
13798;DHT22;6970;51.340;3.240;2022-07-09T07:43:56;21.00;99.90
13798;DHT22;6970;51.340;3.240;2022-07-09T07:46:23;21.10;99.90
13798;DHT22;6970;51.340;3.240;2022-07-09T07:48:50;21.20;99.90
13798;DHT22;6970;51.340;3.240;2022-07-09T07:51:17;21.30;99.90
13798;DHT22;6970;51.340;3.240;2022-07-09T07:53:44;21.40;99.90
13798;DHT22;6970;51.340;3.240;2022-07-09T07:56:12;21.50;99.90
13798;DHT22;6970;51.340;3.240;2022-07-09T07:58:39;21.50;99.90
13798;DHT22;6970;51.340;3.240;2022-07-09T08:01:06;21.50;99.90
13798;DHT22;6970;51.340;3.240;2022-07-09T08:03:33;21.60;99.90
13798;DHT22;6970;51.340;3.240;2022-07-09T08:06:00;21.60;99.90
13798;DHT22;6970;51.340;3.240;2022-07-09T08:08:28;21.60;99.90
13798;DHT22;6970;51.340;3.240;2022-07-09T08:10:55;21.60;99.90
13798;DHT22;6970;51.340;3.240;2022-07-09T08:13:22;21.50;99.90
13798;DHT22;6970;51.340;3.240;2022-07-09T08:15:49;21.50;99.90
13798;DHT22;6970;51.340;3.240;2022-07-09T08:18:16;21.60;99.90
13798;DHT22;6970;51.340;3.240;2022-07-09T08:20:43;21.80;99.90
13798;DHT22;6970;51.340;3.240;2022-07-09T08:23:10;21.90;99.90
13798;DHT22;6970;51.340;3.240;2022-07-09T08:25:37;22.10;99.90
13798;DHT22;6970;51.340;3.240;2022-07-09T08:28:04;22.20;99.90
13798;DHT22;6970;51.340;3.240;2022-07-09T08:30:32;22.20;99.90
13798;DHT22;6970;51.340;3.240;2022-07-09T08:32:59;22.30;99.90
13798;DHT22;6970;51.340;3.240;2022-07-09T08:35:26;22.50;99.90
13798;DHT22;6970;51.340;3.240;2022-07-09T08:37:54;22.60;99.90
13798;DHT22;6970;51.340;3.240;2022-07-09T08:40:22;22.70;99.90
13798;DHT22;6970;51.340;3.240;2022-07-09T08:42:53;22.80;99.90
13798;DHT22;6970;51.340;3.240;2022-07-09T08:45:21;22.90;99.90
13798;DHT22;6970;51.340;3.240;2022-07-09T08:47:48;23.00;99.90
13798;DHT22;6970;51.340;3.240;2022-07-09T08:50:15;23.20;99.90
13798;DHT22;6970;51.340;3.240;2022-07-09T08:52:42;23.40;99.90
13798;DHT22;6970;51.340;3.240;2022-07-09T08:55:10;23.50;99.90
13798;DHT22;6970;51.340;3.240;2022-07-09T08:57:37;23.60;99.50
13798;DHT22;6970;51.340;3.240;2022-07-09T09:00:06;23.80;99.60
13798;DHT22;6970;51.340;3.240;2022-07-09T09:02:37;23.90;99.00
13798;DHT22;6970;51.340;3.240;2022-07-09T09:05:23;24.10;98.90
13798;DHT22;6970;51.340;3.240;2022-07-09T09:07:50;24.30;98.30
13798;DHT22;6970;51.340;3.240;2022-07-09T09:10:22;24.40;97.90
13798;DHT22;6970;51.340;3.240;2022-07-09T09:12:55;24.50;97.40
13798;DHT22;6970;51.340;3.240;2022-07-09T09:15:22;24.50;96.50
13798;DHT22;6970;51.340;3.240;2022-07-09T09:17:49;24.30;96.50
13798;DHT22;6970;51.340;3.240;2022-07-09T09:20:17;24.30;96.40
13798;DHT22;6970;51.340;3.240;2022-07-09T09:22:48;24.40;96.20
13798;DHT22;6970;51.340;3.240;2022-07-09T09:25:20;24.50;96.40
13798;DHT22;6970;51.340;3.240;2022-07-09T09:27:54;24.60;96.00
13798;DHT22;6970;51.340;3.240;2022-07-09T09:30:23;24.60;96.10
13798;DHT22;6970;51.340;3.240;2022-07-09T09:33:01;24.70;96.40
13798;DHT22;6970;51.340;3.240;2022-07-09T09:35:32;24.90;96.10
13798;DHT22;6970;51.340;3.240;2022-07-09T09:37:59;25.10;95.80
13798;DHT22;6970;51.340;3.240;2022-07-09T09:40:26;25.30;95.30
13798;DHT22;6970;51.340;3.240;2022-07-09T09:42:54;25.40;94.40
13798;DHT22;6970;51.340;3.240;2022-07-09T09:45:26;25.40;94.50
13798;DHT22;6970;51.340;3.240;2022-07-09T09:47:54;25.30;94.60
13798;DHT22;6970;51.340;3.240;2022-07-09T09:50:25;25.30;94.60
13798;DHT22;6970;51.340;3.240;2022-07-09T09:52:53;25.20;94.60
13798;DHT22;6970;51.340;3.240;2022-07-09T09:55:23;25.20;94.80
13798;DHT22;6970;51.340;3.240;2022-07-09T09:57:51;25.40;94.80
13798;DHT22;6970;51.340;3.240;2022-07-09T10:00:19;25.50;94.60
13798;DHT22;6970;51.340;3.240;2022-07-09T10:02:47;25.70;94.10
13798;DHT22;6970;51.340;3.240;2022-07-09T10:05:14;25.70;94.20
13798;DHT22;6970;51.340;3.240;2022-07-09T10:07:42;25.80;93.90
13798;DHT22;6970;51.340;3.240;2022-07-09T10:10:18;25.80;93.70
13798;DHT22;6970;51.340;3.240;2022-07-09T10:12:49;26.00;93.70
13798;DHT22;6970;51.340;3.240;2022-07-09T10:15:26;26.10;93.60
13798;DHT22;6970;51.340;3.240;2022-07-09T10:17:55;26.10;93.50
13798;DHT22;6970;51.340;3.240;2022-07-09T10:20:30;26.20;93.50
13798;DHT22;6970;51.340;3.240;2022-07-09T10:23:00;26.30;93.50
13798;DHT22;6970;51.340;3.240;2022-07-09T10:25:29;26.30;93.20
13798;DHT22;6970;51.340;3.240;2022-07-09T10:27:59;26.10;93.10
13798;DHT22;6970;51.340;3.240;2022-07-09T10:30:27;26.20;93.30
13798;DHT22;6970;51.340;3.240;2022-07-09T10:33:09;26.40;93.20
13798;DHT22;6970;51.340;3.240;2022-07-09T10:35:48;26.60;92.80
13798;DHT22;6970;51.340;3.240;2022-07-09T10:38:18;26.80;92.60
13798;DHT22;6970;51.340;3.240;2022-07-09T10:40:57;27.00;92.40
13798;DHT22;6970;51.340;3.240;2022-07-09T10:43:49;27.20;91.70
13798;DHT22;6970;51.340;3.240;2022-07-09T10:46:24;27.60;91.60
13798;DHT22;6970;51.340;3.240;2022-07-09T10:48:53;27.80;91.00
13798;DHT22;6970;51.340;3.240;2022-07-09T10:51:22;27.90;90.80
13798;DHT22;6970;51.340;3.240;2022-07-09T10:53:50;28.10;90.60
13798;DHT22;6970;51.340;3.240;2022-07-09T10:56:21;28.10;90.50
13798;DHT22;6970;51.340;3.240;2022-07-09T10:58:49;27.90;90.50
13798;DHT22;6970;51.340;3.240;2022-07-09T11:01:21;27.90;90.70
13798;DHT22;6970;51.340;3.240;2022-07-09T11:03:54;27.90;90.50
13798;DHT22;6970;51.340;3.240;2022-07-09T11:06:22;28.00;88.90
13798;DHT22;6970;51.340;3.240;2022-07-09T11:08:49;27.90;88.70
13798;DHT22;6970;51.340;3.240;2022-07-09T11:11:23;27.60;88.70
13798;DHT22;6970;51.340;3.240;2022-07-09T11:13:53;27.50;88.30
13798;DHT22;6970;51.340;3.240;2022-07-09T11:16:25;27.50;88.90
13798;DHT22;6970;51.340;3.240;2022-07-09T11:18:57;27.60;87.10
13798;DHT22;6970;51.340;3.240;2022-07-09T11:21:27;27.80;87.00
13798;DHT22;6970;51.340;3.240;2022-07-09T11:23:57;28.00;85.50
13798;DHT22;6970;51.340;3.240;2022-07-09T11:26:24;28.10;84.40
13798;DHT22;6970;51.340;3.240;2022-07-09T11:28:51;28.10;82.60
13798;DHT22;6970;51.340;3.240;2022-07-09T11:31:20;27.80;82.80
13798;DHT22;6970;51.340;3.240;2022-07-09T11:33:51;27.60;83.90
13798;DHT22;6970;51.340;3.240;2022-07-09T11:36:51;27.40;84.50
13798;DHT22;6970;51.340;3.240;2022-07-09T11:39:33;27.20;85.90
13798;DHT22;6970;51.340;3.240;2022-07-09T11:42:04;27.30;85.90
13798;DHT22;6970;51.340;3.240;2022-07-09T11:44:33;27.30;85.30
13798;DHT22;6970;51.340;3.240;2022-07-09T11:47:10;27.20;85.40
13798;DHT22;6970;51.340;3.240;2022-07-09T11:49:45;27.20;86.40
13798;DHT22;6970;51.340;3.240;2022-07-09T11:52:17;27.20;86.40
13798;DHT22;6970;51.340;3.240;2022-07-09T11:55:08;27.10;87.10
13798;DHT22;6970;51.340;3.240;2022-07-09T11:57:36;27.20;87.70
13798;DHT22;6970;51.340;3.240;2022-07-09T12:00:07;27.40;87.60
13798;DHT22;6970;51.340;3.240;2022-07-09T12:02:37;27.40;87.60
13798;DHT22;6970;51.340;3.240;2022-07-09T12:05:07;27.20;88.10
13798;DHT22;6970;51.340;3.240;2022-07-09T12:07:38;26.90;88.70
13798;DHT22;6970;51.340;3.240;2022-07-09T12:10:08;26.60;89.80
13798;DHT22;6970;51.340;3.240;2022-07-09T12:12:38;26.40;90.20
13798;DHT22;6970;51.340;3.240;2022-07-09T12:15:07;26.30;90.20
13798;DHT22;6970;51.340;3.240;2022-07-09T12:17:37;26.40;90.10
13798;DHT22;6970;51.340;3.240;2022-07-09T12:20:06;26.60;89.80
13798;DHT22;6970;51.340;3.240;2022-07-09T12:22:37;26.60;90.00
13798;DHT22;6970;51.340;3.240;2022-07-09T12:25:04;26.50;89.40
13798;DHT22;6970;51.340;3.240;2022-07-09T12:27:33;26.40;89.90
13798;DHT22;6970;51.340;3.240;2022-07-09T12:30:04;26.30;90.40
13798;DHT22;6970;51.340;3.240;2022-07-09T12:32:32;26.10;90.50
13798;DHT22;6970;51.340;3.240;2022-07-09T12:35:02;26.00;90.50
13798;DHT22;6970;51.340;3.240;2022-07-09T12:37:30;26.10;90.60
13798;DHT22;6970;51.340;3.240;2022-07-09T12:40:01;26.00;90.70
13798;DHT22;6970;51.340;3.240;2022-07-09T12:42:29;25.80;90.90
13798;DHT22;6970;51.340;3.240;2022-07-09T12:44:56;25.40;91.50
13798;DHT22;6970;51.340;3.240;2022-07-09T12:47:25;25.20;91.40
13798;DHT22;6970;51.340;3.240;2022-07-09T12:49:55;25.00;91.50
13798;DHT22;6970;51.340;3.240;2022-07-09T12:52:25;24.90;91.90
13798;DHT22;6970;51.340;3.240;2022-07-09T12:54:54;24.90;92.10
13798;DHT22;6970;51.340;3.240;2022-07-09T12:57:24;24.80;92.00
13798;DHT22;6970;51.340;3.240;2022-07-09T12:59:54;24.90;91.60
13798;DHT22;6970;51.340;3.240;2022-07-09T13:02:24;25.00;91.60
13798;DHT22;6970;51.340;3.240;2022-07-09T13:04:55;24.90;92.10
13798;DHT22;6970;51.340;3.240;2022-07-09T13:07:24;24.80;92.30
13798;DHT22;6970;51.340;3.240;2022-07-09T13:09:51;24.50;92.30
13798;DHT22;6970;51.340;3.240;2022-07-09T13:12:21;24.40;92.70
13798;DHT22;6970;51.340;3.240;2022-07-09T13:14:49;24.40;92.60
13798;DHT22;6970;51.340;3.240;2022-07-09T13:17:24;24.40;92.80
13798;DHT22;6970;51.340;3.240;2022-07-09T13:19:59;24.40;92.90
13798;DHT22;6970;51.340;3.240;2022-07-09T13:22:29;24.30;92.90
13798;DHT22;6970;51.340;3.240;2022-07-09T13:24:57;24.30;93.20
13798;DHT22;6970;51.340;3.240;2022-07-09T13:27:25;24.10;93.50
13798;DHT22;6970;51.340;3.240;2022-07-09T13:29:55;24.20;93.90
13798;DHT22;6970;51.340;3.240;2022-07-09T13:32:26;24.20;93.90
13798;DHT22;6970;51.340;3.240;2022-07-09T13:34:54;24.20;93.90
13798;DHT22;6970;51.340;3.240;2022-07-09T13:37:24;24.40;93.90
13798;DHT22;6970;51.340;3.240;2022-07-09T13:39:54;24.40;93.50
13798;DHT22;6970;51.340;3.240;2022-07-09T13:42:24;24.50;93.60
13798;DHT22;6970;51.340;3.240;2022-07-09T13:44:54;24.50;93.00
13798;DHT22;6970;51.340;3.240;2022-07-09T13:47:24;24.50;93.40
13798;DHT22;6970;51.340;3.240;2022-07-09T13:49:51;24.40;93.40
13798;DHT22;6970;51.340;3.240;2022-07-09T13:52:19;24.40;93.40
13798;DHT22;6970;51.340;3.240;2022-07-09T13:54:52;24.30;93.60
13798;DHT22;6970;51.340;3.240;2022-07-09T13:57:20;24.20;93.80
13798;DHT22;6970;51.340;3.240;2022-07-09T13:59:48;24.30;93.90
13798;DHT22;6970;51.340;3.240;2022-07-09T14:02:16;24.30;94.20
13798;DHT22;6970;51.340;3.240;2022-07-09T14:04:50;24.20;94.30
13798;DHT22;6970;51.340;3.240;2022-07-09T14:07:19;24.00;94.40
13798;DHT22;6970;51.340;3.240;2022-07-09T14:09:46;24.00;94.40
13798;DHT22;6970;51.340;3.240;2022-07-09T14:12:15;24.00;94.40
13798;DHT22;6970;51.340;3.240;2022-07-09T14:14:44;23.90;94.70
13798;DHT22;6970;51.340;3.240;2022-07-09T14:17:12;23.90;94.90
13798;DHT22;6970;51.340;3.240;2022-07-09T14:19:39;23.90;94.90
13798;DHT22;6970;51.340;3.240;2022-07-09T14:22:06;24.00;94.80
13798;DHT22;6970;51.340;3.240;2022-07-09T14:24:33;24.10;94.90
13798;DHT22;6970;51.340;3.240;2022-07-09T14:27:00;24.10;94.60
13798;DHT22;6970;51.340;3.240;2022-07-09T14:29:30;24.00;95.00
13798;DHT22;6970;51.340;3.240;2022-07-09T14:31:59;23.90;95.30
13798;DHT22;6970;51.340;3.240;2022-07-09T14:34:26;23.90;95.20
13798;DHT22;6970;51.340;3.240;2022-07-09T14:36:53;23.80;95.00
13798;DHT22;6970;51.340;3.240;2022-07-09T14:39:21;23.70;95.60
13798;DHT22;6970;51.340;3.240;2022-07-09T14:41:49;23.60;95.90
13798;DHT22;6970;51.340;3.240;2022-07-09T14:44:17;23.40;95.90
13798;DHT22;6970;51.340;3.240;2022-07-09T14:46:44;23.40;95.90
13798;DHT22;6970;51.340;3.240;2022-07-09T14:49:12;23.30;95.70
13798;DHT22;6970;51.340;3.240;2022-07-09T14:51:39;23.30;96.00
13798;DHT22;6970;51.340;3.240;2022-07-09T14:54:06;23.30;96.30
13798;DHT22;6970;51.340;3.240;2022-07-09T14:56:33;23.10;96.60
13798;DHT22;6970;51.340;3.240;2022-07-09T14:59:01;23.00;96.70
13798;DHT22;6970;51.340;3.240;2022-07-09T15:01:31;22.80;96.50
13798;DHT22;6970;51.340;3.240;2022-07-09T15:03:58;22.80;96.70
13798;DHT22;6970;51.340;3.240;2022-07-09T15:06:25;22.80;96.60
13798;DHT22;6970;51.340;3.240;2022-07-09T15:08:52;22.80;96.80
13798;DHT22;6970;51.340;3.240;2022-07-09T15:11:19;22.80;96.80
13798;DHT22;6970;51.340;3.240;2022-07-09T15:13:46;22.70;97.00
13798;DHT22;6970;51.340;3.240;2022-07-09T15:16:13;22.70;96.80
13798;DHT22;6970;51.340;3.240;2022-07-09T15:18:40;22.60;97.00
13798;DHT22;6970;51.340;3.240;2022-07-09T15:21:10;22.60;97.10
13798;DHT22;6970;51.340;3.240;2022-07-09T15:23:40;22.50;97.00
13798;DHT22;6970;51.340;3.240;2022-07-09T15:26:09;22.40;97.10
13798;DHT22;6970;51.340;3.240;2022-07-09T15:28:39;22.30;97.40
13798;DHT22;6970;51.340;3.240;2022-07-09T15:31:06;22.20;97.50
13798;DHT22;6970;51.340;3.240;2022-07-09T15:33:34;22.00;97.50
13798;DHT22;6970;51.340;3.240;2022-07-09T15:36:02;21.80;97.70
13798;DHT22;6970;51.340;3.240;2022-07-09T15:38:32;21.70;98.40
13798;DHT22;6970;51.340;3.240;2022-07-09T15:41:01;21.70;98.90
13798;DHT22;6970;51.340;3.240;2022-07-09T15:43:31;21.60;98.50
13798;DHT22;6970;51.340;3.240;2022-07-09T15:45:58;21.50;99.10
13798;DHT22;6970;51.340;3.240;2022-07-09T15:48:29;21.50;98.90
13798;DHT22;6970;51.340;3.240;2022-07-09T15:50:59;21.50;99.30
13798;DHT22;6970;51.340;3.240;2022-07-09T15:53:29;21.40;99.10